Time;durP1;ratioP1;P1;durP2;ratioP2;P2;SDS_P1;SDS_P2;PMS_P1;PMS_P2;Temp;Humidity;BMP_temperature;BMP_pressure;BME280_temperature;BME280_humidity;BME280_pressure;Samples;Min_cycle;Max_cycle;Signal;HPM_P1;HPM_P2
2021/10/16 00:01:10;;;;;;;;;;;18.60;60.40;;;;;;5043714;28;20255;-59
2021/10/16 00:03:36;;;;;;;;;;;18.60;60.30;;;;;;5042998;28;20291;-60
2021/10/16 00:06:01;;;;;;;;;;;18.60;60.30;;;;;;5042561;28;19913;-57
2021/10/16 00:08:26;;;;;;;;;;;18.60;60.30;;;;;;5042771;28;19999;-56
2021/10/16 00:10:52;;;;;;;;;;;18.60;60.30;;;;;;5041925;28;19920;-56
2021/10/16 00:13:17;;;;;;;;;;;18.60;60.30;;;;;;5042170;28;19978;-52
2021/10/16 00:15:43;;;;;;;;;;;18.60;60.30;;;;;;5041969;28;19913;-58
2021/10/16 00:18:08;;;;;;;;;;;18.60;60.30;;;;;;5042520;28;19917;-55
2021/10/16 00:20:34;;;;;;;;;;;18.60;60.20;;;;;;5042176;28;19913;-55
2021/10/16 00:22:59;;;;;;;;;;;18.60;60.20;;;;;;5040065;28;20378;-57
2021/10/16 00:25:25;;;;;;;;;;;18.60;60.20;;;;;;5039760;28;19917;-57
2021/10/16 00:27:50;;;;;;;;;;;18.60;60.20;;;;;;5045726;28;19966;-56
2021/10/16 00:30:15;;;;;;;;;;;18.60;60.20;;;;;;5046247;28;19912;-58
2021/10/16 00:32:41;;;;;;;;;;;18.60;60.20;;;;;;5046405;28;20553;-57
2021/10/16 00:35:07;;;;;;;;;;;18.60;60.20;;;;;;5045948;28;19917;-56
2021/10/16 00:37:32;;;;;;;;;;;18.60;60.20;;;;;;5046116;28;20011;-57
2021/10/16 00:39:57;;;;;;;;;;;18.60;60.10;;;;;;5046531;28;19920;-58
2021/10/16 00:42:23;;;;;;;;;;;18.60;60.10;;;;;;5044860;28;19936;-57
2021/10/16 00:44:48;;;;;;;;;;;18.60;60.10;;;;;;5046230;28;20345;-57
2021/10/16 00:47:14;;;;;;;;;;;18.60;60.00;;;;;;5045606;28;19913;-57
2021/10/16 00:49:39;;;;;;;;;;;18.60;60.10;;;;;;5048888;28;20389;-57
2021/10/16 00:52:05;;;;;;;;;;;18.60;60.10;;;;;;5045860;28;19916;-55
2021/10/16 00:54:30;;;;;;;;;;;18.60;60.10;;;;;;5047291;28;19913;-55
2021/10/16 00:56:58;;;;;;;;;;;18.60;60.10;;;;;;5045851;28;19921;-58
2021/10/16 00:59:23;;;;;;;;;;;18.60;60.00;;;;;;5041524;28;19944;-56
2021/10/16 01:01:48;;;;;;;;;;;18.60;60.00;;;;;;5045930;28;19919;-57
2021/10/16 01:04:14;;;;;;;;;;;18.60;60.00;;;;;;5045879;28;19924;-58
2021/10/16 01:06:40;;;;;;;;;;;18.60;60.00;;;;;;5044981;28;20370;-57
2021/10/16 01:09:08;;;;;;;;;;;18.60;60.00;;;;;;5027336;28;19927;-57
2021/10/16 01:11:40;;;;;;;;;;;18.60;59.90;;;;;;5045255;28;19923;-58
2021/10/16 01:14:07;;;;;;;;;;;18.60;60.00;;;;;;5045346;28;19992;-57
2021/10/16 01:16:33;;;;;;;;;;;18.60;60.00;;;;;;5045239;28;19960;-57
2021/10/16 01:18:59;;;;;;;;;;;18.60;59.90;;;;;;5044596;28;20018;-60
2021/10/16 01:21:24;;;;;;;;;;;18.50;59.90;;;;;;5027790;28;19931;-58
2021/10/16 01:23:49;;;;;;;;;;;18.50;59.90;;;;;;5028789;28;20492;-57
2021/10/16 01:26:15;;;;;;;;;;;18.50;59.90;;;;;;5044438;28;19912;-57
2021/10/16 01:28:40;;;;;;;;;;;18.50;59.90;;;;;;5027081;28;19913;-56
2021/10/16 01:31:06;;;;;;;;;;;18.50;59.90;;;;;;5027199;28;20031;-55
2021/10/16 01:33:31;;;;;;;;;;;18.50;59.90;;;;;;5026519;28;19959;-55
2021/10/16 01:36:00;;;;;;;;;;;18.50;59.90;;;;;;5044682;28;19928;-57
2021/10/16 01:38:26;;;;;;;;;;;18.50;59.90;;;;;;5045224;28;19966;-57
2021/10/16 01:40:51;;;;;;;;;;;18.50;59.80;;;;;;5044707;28;19996;-55
2021/10/16 01:43:17;;;;;;;;;;;18.50;59.80;;;;;;5027405;28;19974;-58
2021/10/16 01:45:42;;;;;;;;;;;18.50;59.90;;;;;;5031064;28;19917;-58
2021/10/16 01:48:08;;;;;;;;;;;18.50;59.90;;;;;;5051567;28;19913;-57
2021/10/16 01:50:37;;;;;;;;;;;18.50;59.80;;;;;;5047355;28;20009;-58
2021/10/16 01:53:06;;;;;;;;;;;18.50;59.80;;;;;;5049284;28;19940;-57
2021/10/16 01:55:32;;;;;;;;;;;18.50;59.80;;;;;;5038115;28;19916;-58
2021/10/16 01:58:03;;;;;;;;;;;18.50;59.90;;;;;;5051535;28;20294;-57
2021/10/16 02:00:28;;;;;;;;;;;18.50;59.80;;;;;;5048450;28;20687;-55
2021/10/16 02:02:54;;;;;;;;;;;18.50;59.70;;;;;;5047370;28;21325;-57
2021/10/16 02:05:19;;;;;;;;;;;18.50;59.70;;;;;;5046885;28;19917;-56
2021/10/16 02:07:45;;;;;;;;;;;18.50;59.80;;;;;;5045464;28;20378;-57
2021/10/16 02:10:12;;;;;;;;;;;18.50;59.80;;;;;;5045110;28;19917;-57
2021/10/16 02:12:38;;;;;;;;;;;18.50;60.40;;;;;;5037983;22;19945;-63
2021/10/16 02:15:03;;;;;;;;;;;18.50;59.70;;;;;;5007912;28;20079;-63
2021/10/16 02:17:28;;;;;;;;;;;18.50;59.70;;;;;;5008147;28;19909;-63
2021/10/16 02:19:54;;;;;;;;;;;18.50;59.70;;;;;;5008154;28;19917;-63
2021/10/16 02:22:19;;;;;;;;;;;18.50;59.80;;;;;;5006554;28;20060;-64
2021/10/16 02:24:45;;;;;;;;;;;18.50;59.90;;;;;;5007347;28;20114;-64
2021/10/16 02:27:10;;;;;;;;;;;18.50;59.90;;;;;;5007999;28;19936;-63
2021/10/16 02:29:36;;;;;;;;;;;18.50;59.90;;;;;;5007731;28;19913;-63
2021/10/16 02:32:01;;;;;;;;;;;18.40;59.90;;;;;;5007865;28;20408;-62
2021/10/16 02:34:27;;;;;;;;;;;18.40;60.00;;;;;;5007687;28;19917;-63
2021/10/16 02:36:52;;;;;;;;;;;18.50;60.00;;;;;;5007913;28;19913;-63
2021/10/16 02:39:18;;;;;;;;;;;18.40;59.90;;;;;;5007780;28;19913;-63
2021/10/16 02:41:43;;;;;;;;;;;18.40;60.00;;;;;;5007928;28;19916;-63
2021/10/16 02:44:09;;;;;;;;;;;18.40;60.00;;;;;;5007912;28;20388;-63
2021/10/16 02:46:34;;;;;;;;;;;18.40;60.00;;;;;;5008069;28;19924;-62
2021/10/16 02:48:59;;;;;;;;;;;18.40;60.10;;;;;;5007416;28;20460;-63
2021/10/16 02:51:25;;;;;;;;;;;18.40;60.10;;;;;;5007739;28;19945;-62
2021/10/16 02:53:50;;;;;;;;;;;18.40;60.10;;;;;;5007665;28;19917;-63
2021/10/16 02:56:16;;;;;;;;;;;18.40;60.10;;;;;;5007475;28;19921;-63
2021/10/16 02:58:41;;;;;;;;;;;18.30;60.10;;;;;;5007482;28;20509;-63
2021/10/16 03:01:07;;;;;;;;;;;18.30;60.10;;;;;;5007497;28;19999;-63
2021/10/16 03:03:32;;;;;;;;;;;18.30;60.10;;;;;;5007501;28;19914;-63
2021/10/16 03:05:58;;;;;;;;;;;18.40;60.10;;;;;;5006961;28;19909;-62
2021/10/16 03:08:23;;;;;;;;;;;18.40;60.00;;;;;;5006685;28;19929;-62
2021/10/16 03:10:48;;;;;;;;;;;18.40;60.00;;;;;;5007245;28;20493;-63
2021/10/16 03:13:14;;;;;;;;;;;18.40;59.90;;;;;;5007490;28;19993;-62
2021/10/16 03:15:39;;;;;;;;;;;18.40;59.90;;;;;;5007511;28;19916;-62
2021/10/16 03:18:05;;;;;;;;;;;18.40;59.90;;;;;;5007721;28;19921;-63
2021/10/16 03:20:30;;;;;;;;;;;18.40;60.00;;;;;;5009069;28;20287;-64
2021/10/16 03:22:56;;;;;;;;;;;18.30;59.90;;;;;;5009447;28;19916;-62
2021/10/16 03:25:21;;;;;;;;;;;18.30;59.90;;;;;;5007916;28;19913;-63
2021/10/16 03:27:46;;;;;;;;;;;18.30;59.90;;;;;;5007339;28;19909;-63
2021/10/16 03:30:12;;;;;;;;;;;18.30;59.90;;;;;;5007774;28;20319;-63
2021/10/16 03:32:37;;;;;;;;;;;18.30;59.80;;;;;;5007413;28;19971;-63
2021/10/16 03:35:03;;;;;;;;;;;18.30;59.90;;;;;;5006857;28;20434;-63
2021/10/16 03:37:28;;;;;;;;;;;18.20;59.90;;;;;;5006987;28;19955;-62
2021/10/16 03:39:54;;;;;;;;;;;18.20;60.10;;;;;;5006782;28;19914;-63
2021/10/16 03:42:19;;;;;;;;;;;18.20;60.10;;;;;;5006842;28;20519;-63
2021/10/16 03:44:45;;;;;;;;;;;18.20;60.10;;;;;;5006720;28;19920;-62
2021/10/16 03:47:10;;;;;;;;;;;18.20;60.20;;;;;;5006560;28;19910;-63
2021/10/16 03:49:35;;;;;;;;;;;18.20;60.20;;;;;;5006631;28;19913;-63
2021/10/16 03:52:01;;;;;;;;;;;18.30;60.00;;;;;;5006023;28;20356;-63
2021/10/16 03:54:26;;;;;;;;;;;18.30;59.90;;;;;;5007092;28;19916;-63
2021/10/16 03:56:52;;;;;;;;;;;18.40;59.70;;;;;;5006542;28;19921;-63
2021/10/16 03:59:21;;;;;;;;;;;18.50;59.50;;;;;;5006502;28;19916;-62
2021/10/16 04:01:47;;;;;;;;;;;18.50;59.50;;;;;;5006770;28;19953;-62
2021/10/16 04:04:13;;;;;;;;;;;18.60;59.20;;;;;;5006755;28;20012;-63
2021/10/16 04:06:38;;;;;;;;;;;18.60;59.20;;;;;;5006174;28;19909;-62
2021/10/16 04:09:04;;;;;;;;;;;18.60;59.10;;;;;;5004984;28;19964;-61
2021/10/16 04:11:29;;;;;;;;;;;18.60;59.00;;;;;;5006181;28;20383;-62
2021/10/16 04:13:54;;;;;;;;;;;18.70;59.00;;;;;;5005936;28;19917;-63
2021/10/16 04:16:20;;;;;;;;;;;18.70;59.00;;;;;;5006195;28;20384;-63
2021/10/16 04:18:45;;;;;;;;;;;18.70;59.00;;;;;;5005063;28;19913;-63
2021/10/16 04:21:11;;;;;;;;;;;18.70;58.90;;;;;;5006266;28;19959;-63
2021/10/16 04:23:36;;;;;;;;;;;18.70;58.80;;;;;;5004514;28;19914;-63
2021/10/16 04:26:02;;;;;;;;;;;18.70;58.80;;;;;;5005355;28;19932;-63
2021/10/16 04:28:27;;;;;;;;;;;18.80;58.70;;;;;;5006461;28;19909;-62
2021/10/16 04:30:53;;;;;;;;;;;18.80;58.70;;;;;;5006493;28;19921;-63
2021/10/16 04:33:18;;;;;;;;;;;18.80;58.60;;;;;;5006520;28;19909;-62
2021/10/16 04:35:44;;;;;;;;;;;18.80;58.60;;;;;;5005863;28;19909;-63
2021/10/16 04:38:09;;;;;;;;;;;18.80;58.60;;;;;;5006256;28;19916;-62
2021/10/16 04:40:35;;;;;;;;;;;18.80;58.70;;;;;;4996976;28;20390;-62
2021/10/16 04:43:02;;;;;;;;;;;18.70;58.60;;;;;;5007120;28;19910;-63
2021/10/16 04:45:27;;;;;;;;;;;18.70;58.60;;;;;;5006180;28;19913;-62
2021/10/16 04:47:53;;;;;;;;;;;18.70;58.60;;;;;;5008078;28;19921;-61
2021/10/16 04:50:18;;;;;;;;;;;18.70;58.60;;;;;;5004838;28;19909;-60
2021/10/16 04:52:44;;;;;;;;;;;18.80;58.60;;;;;;5006501;28;19913;-64
2021/10/16 04:55:09;;;;;;;;;;;18.70;58.60;;;;;;5006567;28;19910;-63
2021/10/16 04:57:35;;;;;;;;;;;18.70;58.60;;;;;;5005905;28;20005;-63
2021/10/16 05:00:00;;;;;;;;;;;18.70;58.60;;;;;;5006466;28;19910;-62
2021/10/16 05:02:26;;;;;;;;;;;18.70;58.60;;;;;;5006346;28;19936;-63
2021/10/16 05:04:51;;;;;;;;;;;18.70;58.50;;;;;;5006061;28;19914;-62
2021/10/16 05:07:17;;;;;;;;;;;18.70;58.60;;;;;;5005741;28;20292;-62
2021/10/16 05:09:42;;;;;;;;;;;18.70;58.50;;;;;;5005218;28;19910;-62
2021/10/16 05:12:08;;;;;;;;;;;18.70;58.40;;;;;;5008392;28;19918;-62
2021/10/16 05:14:33;;;;;;;;;;;18.70;58.40;;;;;;5011201;28;19980;-63
2021/10/16 05:16:59;;;;;;;;;;;18.70;58.40;;;;;;5011886;28;19910;-60
2021/10/16 05:19:24;;;;;;;;;;;18.60;58.30;;;;;;5012584;28;19909;-63
2021/10/16 05:21:49;;;;;;;;;;;18.70;58.40;;;;;;5011994;28;20423;-62
2021/10/16 05:24:15;;;;;;;;;;;18.60;58.30;;;;;;5012649;28;19948;-57
2021/10/16 05:26:40;;;;;;;;;;;18.60;58.30;;;;;;5013646;28;19914;-63
2021/10/16 05:29:06;;;;;;;;;;;18.60;58.30;;;;;;5014613;28;19914;-63
2021/10/16 05:31:31;;;;;;;;;;;18.60;58.40;;;;;;5014973;28;19910;-61
2021/10/16 05:33:57;;;;;;;;;;;18.60;58.30;;;;;;5014400;28;19917;-63
2021/10/16 05:36:22;;;;;;;;;;;18.60;58.40;;;;;;5012390;28;19913;-65
2021/10/16 05:38:48;;;;;;;;;;;18.60;58.40;;;;;;5002279;28;20375;-63
2021/10/16 05:41:13;;;;;;;;;;;18.60;58.40;;;;;;5009993;28;19980;-64
2021/10/16 05:43:39;;;;;;;;;;;18.60;58.40;;;;;;5008238;28;19913;-62
2021/10/16 05:46:04;;;;;;;;;;;18.60;58.40;;;;;;5010889;28;19917;-64
2021/10/16 05:48:30;;;;;;;;;;;18.60;58.60;;;;;;5010577;28;20619;-63
2021/10/16 05:50:56;;;;;;;;;;;18.50;58.70;;;;;;5009227;28;19914;-64
2021/10/16 05:53:21;;;;;;;;;;;18.50;58.80;;;;;;5008908;28;20064;-63
2021/10/16 05:55:47;;;;;;;;;;;18.50;59.00;;;;;;5008566;28;20399;-65
2021/10/16 05:58:12;;;;;;;;;;;18.50;59.10;;;;;;5008968;28;19963;-64
2021/10/16 06:00:37;;;;;;;;;;;18.50;59.30;;;;;;5008993;28;19956;-64
2021/10/16 06:03:03;;;;;;;;;;;18.50;59.40;;;;;;5008366;28;19909;-64
2021/10/16 06:05:28;;;;;;;;;;;18.40;59.60;;;;;;5008243;28;20330;-63
2021/10/16 06:07:54;;;;;;;;;;;18.40;59.90;;;;;;5009484;28;19917;-63
2021/10/16 06:10:19;;;;;;;;;;;18.40;60.30;;;;;;5012164;28;19909;-63
2021/10/16 06:12:45;;;;;;;;;;;18.40;60.70;;;;;;5009274;28;19917;-63
2021/10/16 06:15:10;;;;;;;;;;;18.40;60.90;;;;;;5008984;28;19909;-63
2021/10/16 06:17:36;;;;;;;;;;;18.30;61.40;;;;;;5008257;28;20007;-63
2021/10/16 06:20:01;;;;;;;;;;;18.30;61.50;;;;;;5007542;28;20538;-63
2021/10/16 06:22:27;;;;;;;;;;;18.30;61.40;;;;;;5007047;28;20000;-66
2021/10/16 06:24:52;;;;;;;;;;;18.30;61.60;;;;;;5006378;28;19917;-63
2021/10/16 06:27:18;;;;;;;;;;;18.20;61.60;;;;;;5007523;28;19910;-63
2021/10/16 06:29:43;;;;;;;;;;;18.20;61.80;;;;;;5006742;28;19910;-63
2021/10/16 06:32:09;;;;;;;;;;;18.20;61.80;;;;;;5006469;28;19913;-63
2021/10/16 06:34:34;;;;;;;;;;;18.20;61.70;;;;;;5006632;28;19909;-63
2021/10/16 06:36:59;;;;;;;;;;;18.20;61.70;;;;;;5007585;28;19955;-63
2021/10/16 06:39:25;;;;;;;;;;;18.20;61.60;;;;;;5007415;28;20388;-63
2021/10/16 06:41:51;;;;;;;;;;;18.20;61.50;;;;;;5007658;28;19910;-63
2021/10/16 06:44:16;;;;;;;;;;;18.20;61.60;;;;;;5007319;28;19955;-63
2021/10/16 06:46:42;;;;;;;;;;;18.20;61.60;;;;;;5007613;28;19909;-64
2021/10/16 06:49:07;;;;;;;;;;;18.20;62.10;;;;;;5007462;28;20408;-64
2021/10/16 06:51:33;;;;;;;;;;;18.20;61.50;;;;;;5005902;28;19921;-64
2021/10/16 06:53:59;;;;;;;;;;;18.20;61.40;;;;;;5007716;28;19910;-64
2021/10/16 06:56:26;;;;;;;;;;;18.20;61.30;;;;;;5007458;28;19951;-64
2021/10/16 06:58:51;;;;;;;;;;;18.20;61.10;;;;;;5007073;28;20347;-65
2021/10/16 07:01:16;;;;;;;;;;;18.30;61.00;;;;;;5006984;28;19917;-65
2021/10/16 07:03:42;;;;;;;;;;;18.30;60.90;;;;;;5007034;28;19910;-65
2021/10/16 07:06:08;;;;;;;;;;;18.30;60.80;;;;;;5008133;28;19913;-64
2021/10/16 07:08:34;;;;;;;;;;;18.30;60.70;;;;;;5007606;28;19909;-65
2021/10/16 07:10:59;;;;;;;;;;;18.30;60.60;;;;;;5007602;28;19915;-65
2021/10/16 07:13:25;;;;;;;;;;;18.30;60.50;;;;;;5007160;28;19917;-62
2021/10/16 07:15:50;;;;;;;;;;;18.30;60.40;;;;;;5005773;28;19909;-64
2021/10/16 07:18:16;;;;;;;;;;;18.20;60.30;;;;;;5007868;28;20291;-65
2021/10/16 07:20:41;;;;;;;;;;;18.30;60.30;;;;;;5007206;28;19971;-65
2021/10/16 07:23:07;;;;;;;;;;;18.20;60.30;;;;;;5007851;28;19909;-67
2021/10/16 07:25:32;;;;;;;;;;;18.30;60.30;;;;;;5008662;28;20695;-65
2021/10/16 07:27:58;;;;;;;;;;;18.20;60.50;;;;;;5006710;28;19910;-66
2021/10/16 07:30:24;;;;;;;;;;;18.20;61.50;;;;;;5006980;28;19916;-65
2021/10/16 07:32:49;;;;;;;;;;;18.10;62.10;;;;;;5006783;28;19966;-65
2021/10/16 07:35:15;;;;;;;;;;;18.10;62.40;;;;;;5006219;28;19916;-64
2021/10/16 07:37:40;;;;;;;;;;;18.10;62.60;;;;;;5006963;28;20331;-64
2021/10/16 07:40:06;;;;;;;;;;;18.10;62.70;;;;;;5007253;28;20013;-62
2021/10/16 07:42:32;;;;;;;;;;;18.10;62.80;;;;;;5006928;28;20287;-64
2021/10/16 07:44:57;;;;;;;;;;;18.10;62.80;;;;;;5005327;28;19925;-64
2021/10/16 07:47:26;;;;;;;;;;;18.10;62.70;;;;;;5001375;28;19980;-63
2021/10/16 07:49:52;;;;;;;;;;;18.10;62.70;;;;;;5005734;28;19957;-64
2021/10/16 07:52:17;;;;;;;;;;;18.10;62.80;;;;;;5001744;28;20308;-63
2021/10/16 07:54:43;;;;;;;;;;;18.10;62.90;;;;;;5006387;28;19910;-64
2021/10/16 07:57:08;;;;;;;;;;;18.10;62.90;;;;;;5006489;28;19914;-65
2021/10/16 07:59:33;;;;;;;;;;;18.10;62.80;;;;;;5004321;28;19920;-64
2021/10/16 08:01:59;;;;;;;;;;;18.10;62.70;;;;;;4999131;28;19961;-63
2021/10/16 08:04:24;;;;;;;;;;;18.10;62.60;;;;;;5003276;28;20419;-63
2021/10/16 08:06:50;;;;;;;;;;;18.10;62.60;;;;;;5004563;28;19913;-63
2021/10/16 08:09:15;;;;;;;;;;;18.20;62.40;;;;;;5004345;28;19984;-63
2021/10/16 08:11:41;;;;;;;;;;;18.10;62.00;;;;;;5006368;28;19916;-63
2021/10/16 08:14:06;;;;;;;;;;;18.20;61.80;;;;;;5004425;28;20564;-62
2021/10/16 08:16:32;;;;;;;;;;;18.10;61.70;;;;;;5006065;28;19913;-61
2021/10/16 08:18:57;;;;;;;;;;;18.10;61.70;;;;;;5006121;28;19913;-63
2021/10/16 08:21:23;;;;;;;;;;;18.10;61.80;;;;;;5005040;28;20380;-63
2021/10/16 08:23:48;;;;;;;;;;;18.10;61.80;;;;;;5005946;28;19910;-63
2021/10/16 08:26:14;;;;;;;;;;;18.10;61.80;;;;;;5005986;28;19909;-63
2021/10/16 08:28:39;;;;;;;;;;;18.10;61.80;;;;;;5005767;28;20484;-63
2021/10/16 08:31:05;;;;;;;;;;;18.10;61.80;;;;;;5006023;28;19910;-63
2021/10/16 08:33:34;;;;;;;;;;;18.00;61.90;;;;;;5005929;28;20391;-64
2021/10/16 08:36:00;;;;;;;;;;;18.10;62.00;;;;;;5005461;28;19916;-63
2021/10/16 08:38:25;;;;;;;;;;;18.10;62.00;;;;;;5006362;28;20012;-63
2021/10/16 08:40:51;;;;;;;;;;;18.00;62.20;;;;;;5005816;28;19910;-62
2021/10/16 08:43:17;;;;;;;;;;;18.00;62.20;;;;;;5005897;28;19914;-63
2021/10/16 08:45:42;;;;;;;;;;;18.00;62.00;;;;;;5005911;28;20017;-62
2021/10/16 08:48:08;;;;;;;;;;;18.10;61.90;;;;;;5008915;28;19914;-65
2021/10/16 08:50:33;;;;;;;;;;;18.20;61.50;;;;;;5009287;28;19916;-63
2021/10/16 08:52:59;;;;;;;;;;;18.40;61.40;;;;;;5009639;28;20442;-63
2021/10/16 08:55:24;;;;;;;;;;;18.40;61.10;;;;;;5010356;28;20299;-63
2021/10/16 08:57:50;;;;;;;;;;;18.50;60.90;;;;;;5009752;28;19916;-64
2021/10/16 09:00:34;;;;;;;;;;;18.60;60.80;;;;;;5009243;28;19910;-63
2021/10/16 09:03:08;;;;;;;;;;;18.60;60.70;;;;;;5009065;28;19972;-63
2021/10/16 09:05:33;;;;;;;;;;;18.60;60.60;;;;;;5007845;28;20390;-64
2021/10/16 09:07:59;;;;;;;;;;;18.60;60.50;;;;;;5009569;28;19909;-63
2021/10/16 09:10:24;;;;;;;;;;;18.60;60.40;;;;;;5009332;28;20327;-64
2021/10/16 09:12:54;;;;;;;;;;;18.60;60.40;;;;;;5008201;28;19925;-63
2021/10/16 09:15:20;;;;;;;;;;;18.60;60.40;;;;;;5009362;28;20271;-63
2021/10/16 09:17:59;;;;;;;;;;;18.60;60.40;;;;;;5008590;28;19956;-62
2021/10/16 09:20:31;;;;;;;;;;;18.60;60.50;;;;;;5008871;28;20364;-63
2021/10/16 09:23:06;;;;;;;;;;;18.60;60.40;;;;;;5008980;28;19956;-63
2021/10/16 09:25:32;;;;;;;;;;;18.70;60.40;;;;;;5008212;28;19917;-63
2021/10/16 09:28:16;;;;;;;;;;;18.70;60.30;;;;;;5008895;28;19917;-63
2021/10/16 09:30:45;;;;;;;;;;;18.70;60.30;;;;;;5003222;28;19924;-63
2021/10/16 09:33:10;;;;;;;;;;;18.70;60.30;;;;;;5008992;28;20039;-62
2021/10/16 09:35:36;;;;;;;;;;;18.70;60.30;;;;;;5008741;28;20436;-63
2021/10/16 09:38:01;;;;;;;;;;;18.70;60.40;;;;;;5008096;28;19914;-63
2021/10/16 09:40:36;;;;;;;;;;;18.70;60.40;;;;;;5008833;28;19913;-63
2021/10/16 09:43:17;;;;;;;;;;;18.70;60.40;;;;;;5001245;28;20000;-63
2021/10/16 09:45:42;;;;;;;;;;;18.70;60.40;;;;;;5001329;28;20523;-63
2021/10/16 09:48:10;;;;;;;;;;;18.70;60.40;;;;;;5008062;28;19910;-63
2021/10/16 09:50:35;;;;;;;;;;;18.70;60.40;;;;;;5007664;28;19914;-63
2021/10/16 09:53:01;;;;;;;;;;;18.70;60.40;;;;;;5008223;28;20388;-62
2021/10/16 09:55:27;;;;;;;;;;;18.70;60.50;;;;;;5007245;28;19910;-63
2021/10/16 09:57:52;;;;;;;;;;;18.70;60.50;;;;;;5008240;28;19910;-64
2021/10/16 10:00:18;;;;;;;;;;;18.70;60.40;;;;;;5008600;28;19917;-63
2021/10/16 10:02:49;;;;;;;;;;;18.70;60.40;;;;;;5008171;28;19909;-63
2021/10/16 10:05:15;;;;;;;;;;;18.70;60.50;;;;;;5007992;28;19920;-63
2021/10/16 10:07:40;;;;;;;;;;;18.70;60.50;;;;;;5007986;28;20046;-63
2021/10/16 10:10:06;;;;;;;;;;;18.70;60.40;;;;;;5006559;28;19917;-63
2021/10/16 10:12:33;;;;;;;;;;;18.70;60.40;;;;;;5007608;28;19925;-63
2021/10/16 10:14:58;;;;;;;;;;;18.70;60.40;;;;;;5006549;28;19910;-63
2021/10/16 10:17:27;;;;;;;;;;;18.70;60.50;;;;;;5007724;28;19909;-63
2021/10/16 10:19:55;;;;;;;;;;;18.70;60.50;;;;;;5007208;28;19916;-65
2021/10/16 10:22:20;;;;;;;;;;;18.60;60.40;;;;;;5008940;28;19916;-63
2021/10/16 10:24:46;;;;;;;;;;;18.60;60.40;;;;;;5008119;28;19913;-63
2021/10/16 10:27:12;;;;;;;;;;;18.60;60.50;;;;;;5007589;28;19916;-63
2021/10/16 10:29:39;;;;;;;;;;;18.60;60.50;;;;;;5008060;28;19993;-63
2021/10/16 10:32:05;;;;;;;;;;;18.60;60.40;;;;;;5007987;28;20542;-63
2021/10/16 10:34:34;;;;;;;;;;;18.60;60.50;;;;;;5007628;28;19988;-63
2021/10/16 10:37:07;;;;;;;;;;;18.60;60.50;;;;;;5003182;28;19952;-63
2021/10/16 10:39:33;;;;;;;;;;;18.60;60.50;;;;;;5007190;28;20415;-63
2021/10/16 10:41:58;;;;;;;;;;;18.60;60.50;;;;;;5007472;28;19953;-63
2021/10/16 10:44:40;;;;;;;;;;;18.50;60.50;;;;;;5006930;28;19960;-63
2021/10/16 10:47:21;;;;;;;;;;;18.50;60.50;;;;;;5007270;28;19963;-62
2021/10/16 10:49:47;;;;;;;;;;;18.50;60.50;;;;;;5007167;28;19935;-63
2021/10/16 10:52:12;;;;;;;;;;;18.50;60.70;;;;;;5007495;28;20568;-63
2021/10/16 10:54:38;;;;;;;;;;;18.50;60.70;;;;;;5007389;28;19917;-63
2021/10/16 10:57:03;;;;;;;;;;;18.50;60.70;;;;;;5005313;28;20343;-63
2021/10/16 10:59:46;;;;;;;;;;;18.50;60.70;;;;;;5006725;28;20436;-62
2021/10/16 11:02:11;;;;;;;;;;;18.50;60.70;;;;;;5005393;28;19909;-63
2021/10/16 11:04:38;;;;;;;;;;;18.40;60.70;;;;;;5005027;28;19924;-63
2021/10/16 11:07:05;;;;;;;;;;;18.40;60.80;;;;;;5006481;28;19909;-63
2021/10/16 11:09:30;;;;;;;;;;;18.40;60.80;;;;;;5005846;28;20387;-63
2021/10/16 11:11:55;;;;;;;;;;;18.40;60.90;;;;;;5006630;28;20002;-63
2021/10/16 11:14:27;;;;;;;;;;;18.40;61.00;;;;;;5006420;28;20264;-63
2021/10/16 11:16:57;;;;;;;;;;;18.40;61.00;;;;;;5006375;28;19964;-63
2021/10/16 11:19:22;;;;;;;;;;;18.30;61.00;;;;;;5006848;28;20287;-64
2021/10/16 11:21:51;;;;;;;;;;;18.30;61.10;;;;;;5004948;28;19918;-63
2021/10/16 11:24:17;;;;;;;;;;;18.30;61.10;;;;;;5006492;28;20027;-63
2021/10/16 11:26:55;;;;;;;;;;;18.30;61.20;;;;;;5006389;28;20331;-63
2021/10/16 11:29:30;;;;;;;;;;;18.30;61.10;;;;;;5002785;28;19910;-63
2021/10/16 11:32:15;;;;;;;;;;;18.30;61.20;;;;;;5004649;28;19914;-62
2021/10/16 11:34:41;;;;;;;;;;;18.30;61.20;;;;;;5013065;28;19916;-63
2021/10/16 11:37:06;;;;;;;;;;;18.20;61.10;;;;;;5006079;28;19910;-63
2021/10/16 11:39:33;;;;;;;;;;;18.30;61.20;;;;;;5006829;28;20287;-62
2021/10/16 11:41:59;;;;;;;;;;;18.30;61.20;;;;;;5007104;28;19956;-64
2021/10/16 11:44:24;;;;;;;;;;;18.20;61.20;;;;;;5007018;28;19917;-63
2021/10/16 11:47:05;;;;;;;;;;;18.20;61.30;;;;;;5006199;28;19910;-63
2021/10/16 11:49:30;;;;;;;;;;;18.20;61.30;;;;;;5006339;28;19913;-63
2021/10/16 11:51:56;;;;;;;;;;;18.20;61.30;;;;;;5006211;28;19909;-63
2021/10/16 11:54:21;;;;;;;;;;;18.20;61.30;;;;;;5006170;28;19909;-62
2021/10/16 11:56:53;;;;;;;;;;;18.20;61.30;;;;;;5006076;28;19910;-62
2021/10/16 11:59:19;;;;;;;;;;;18.20;61.30;;;;;;5004186;28;19910;-63
2021/10/16 12:01:45;;;;;;;;;;;18.20;61.30;;;;;;5005654;28;19910;-62
2021/10/16 12:04:11;;;;;;;;;;;18.20;61.30;;;;;;5002129;28;19913;-62
2021/10/16 12:06:36;;;;;;;;;;;18.20;61.20;;;;;;5006517;28;19921;-63
2021/10/16 12:09:03;;;;;;;;;;;18.30;61.30;;;;;;5004636;28;20539;-64
2021/10/16 12:11:32;;;;;;;;;;;18.30;61.20;;;;;;5005889;28;20015;-63
2021/10/16 12:14:05;;;;;;;;;;;18.20;61.10;;;;;;5005737;28;19926;-64
2021/10/16 12:16:35;;;;;;;;;;;18.30;61.10;;;;;;5004702;28;19968;-64
2021/10/16 12:19:01;;;;;;;;;;;18.30;61.10;;;;;;5006229;28;19935;-64
2021/10/16 12:21:28;;;;;;;;;;;18.30;61.00;;;;;;5008839;28;20081;-65
2021/10/16 12:23:53;;;;;;;;;;;18.40;61.00;;;;;;5009988;28;19957;-63
2021/10/16 12:26:32;;;;;;;;;;;18.40;60.90;;;;;;5009866;28;19963;-64
2021/10/16 12:28:58;;;;;;;;;;;18.30;60.90;;;;;;5002523;28;19913;-63
2021/10/16 12:31:24;;;;;;;;;;;18.40;60.90;;;;;;5010173;28;19918;-63
2021/10/16 12:34:05;;;;;;;;;;;18.40;61.00;;;;;;5009762;28;19963;-64
2021/10/16 12:36:33;;;;;;;;;;;18.40;60.90;;;;;;5009021;28;20000;-65
2021/10/16 12:38:58;;;;;;;;;;;18.40;60.80;;;;;;5009537;28;19909;-63
2021/10/16 12:41:23;;;;;;;;;;;18.40;60.80;;;;;;5009212;28;19909;-64
2021/10/16 12:43:49;;;;;;;;;;;18.40;60.80;;;;;;5009539;28;19909;-64
2021/10/16 12:46:24;;;;;;;;;;;18.40;60.80;;;;;;5009776;28;19975;-63
2021/10/16 12:48:52;;;;;;;;;;;18.40;60.90;;;;;;5008374;28;19953;-65
2021/10/16 12:51:22;;;;;;;;;;;18.40;60.80;;;;;;5009287;28;19920;-63
2021/10/16 12:53:52;;;;;;;;;;;18.40;60.80;;;;;;5007551;28;20405;-63
2021/10/16 12:56:17;;;;;;;;;;;18.40;60.80;;;;;;5009391;28;19913;-61
2021/10/16 12:58:42;;;;;;;;;;;18.40;60.70;;;;;;5007854;28;19909;-64
2021/10/16 13:01:08;;;;;;;;;;;18.40;60.70;;;;;;5009314;28;19910;-63
2021/10/16 13:03:33;;;;;;;;;;;18.40;60.80;;;;;;5009597;28;19972;-63
2021/10/16 13:06:00;;;;;;;;;;;18.40;60.70;;;;;;5009241;28;19920;-61
2021/10/16 13:08:25;;;;;;;;;;;18.40;60.70;;;;;;5010244;28;19909;-61
2021/10/16 13:10:51;;;;;;;;;;;18.40;60.80;;;;;;5010296;28;20087;-63
2021/10/16 13:13:16;;;;;;;;;;;18.40;60.80;;;;;;5009427;28;19928;-63
2021/10/16 13:15:41;;;;;;;;;;;18.40;60.80;;;;;;5008797;28;19917;-64
2021/10/16 13:18:07;;;;;;;;;;;18.40;60.80;;;;;;5009123;28;20292;-63
2021/10/16 13:20:33;;;;;;;;;;;18.40;60.70;;;;;;5009308;28;19909;-63
2021/10/16 13:22:58;;;;;;;;;;;18.40;60.70;;;;;;5008370;28;19916;-63
2021/10/16 13:25:24;;;;;;;;;;;18.40;60.80;;;;;;4998778;28;20004;-62
2021/10/16 13:27:49;;;;;;;;;;;18.40;60.70;;;;;;4987327;28;19965;-63
2021/10/16 13:30:19;;;;;;;;;;;18.50;60.80;;;;;;4987032;28;19914;-62
2021/10/16 13:32:45;;;;;;;;;;;18.50;60.80;;;;;;4985450;28;19914;-63
2021/10/16 13:35:11;;;;;;;;;;;18.50;60.80;;;;;;4989351;28;19913;-63
2021/10/16 13:37:36;;;;;;;;;;;18.50;60.80;;;;;;4990110;28;19928;-63
2021/10/16 13:40:03;;;;;;;;;;;18.50;60.80;;;;;;4994135;28;21536;-63
2021/10/16 13:42:28;;;;;;;;;;;18.50;60.80;;;;;;5001654;28;19925;-63
2021/10/16 13:44:54;;;;;;;;;;;18.50;60.80;;;;;;5000924;28;20430;-63
2021/10/16 13:47:19;;;;;;;;;;;18.50;60.80;;;;;;4991973;28;19914;-63
2021/10/16 13:49:45;;;;;;;;;;;18.50;60.80;;;;;;4986555;28;19918;-63
2021/10/16 13:52:10;;;;;;;;;;;18.50;60.80;;;;;;4986320;28;20602;-63
2021/10/16 13:54:36;;;;;;;;;;;18.50;60.80;;;;;;4987157;28;19936;-63
2021/10/16 13:57:01;;;;;;;;;;;18.50;60.80;;;;;;4986707;28;19965;-63
2021/10/16 13:59:27;;;;;;;;;;;18.50;60.80;;;;;;4986807;28;20008;-62
2021/10/16 14:01:52;;;;;;;;;;;18.50;60.80;;;;;;4987069;28;19918;-63
2021/10/16 14:04:18;;;;;;;;;;;18.50;60.80;;;;;;4986589;28;20304;-63
2021/10/16 14:06:43;;;;;;;;;;;18.50;60.80;;;;;;4985922;28;19941;-63
2021/10/16 14:09:08;;;;;;;;;;;18.50;60.70;;;;;;4985799;28;19925;-63
2021/10/16 14:11:34;;;;;;;;;;;18.50;60.80;;;;;;4987599;28;19914;-64